sensor_id;sensor_type;location;lat;lon;timestamp;pressure;altitude;pressure_sealevel;temperature;humidity
31337;BME280;22846;42.654;23.314;2023-04-15T00:00:22;93732.59;;;23.12;45.02
31337;BME280;22846;42.654;23.314;2023-04-15T00:02:48;93740.91;;;23.08;45.38
31337;BME280;22846;42.654;23.314;2023-04-15T00:05:14;93743.50;;;23.12;45.07
31337;BME280;22846;42.654;23.314;2023-04-15T00:07:39;93754.84;;;23.10;45.26
31337;BME280;22846;42.654;23.314;2023-04-15T00:10:06;93761.97;;;23.08;44.98
31337;BME280;22846;42.654;23.314;2023-04-15T00:12:31;93769.69;;;23.09;45.14
31337;BME280;22846;42.654;23.314;2023-04-15T00:14:57;93768.94;;;23.09;45.33
31337;BME280;22846;42.654;23.314;2023-04-15T00:17:23;93769.25;;;23.11;45.38
31337;BME280;22846;42.654;23.314;2023-04-15T00:19:48;93768.47;;;23.10;45.27
31337;BME280;22846;42.654;23.314;2023-04-15T00:22:14;93763.50;;;23.09;45.39
31337;BME280;22846;42.654;23.314;2023-04-15T00:24:40;93742.09;;;22.99;45.20
31337;BME280;22846;42.654;23.314;2023-04-15T00:27:06;93737.53;;;22.96;45.12
31337;BME280;22846;42.654;23.314;2023-04-15T00:29:32;93760.75;;;23.09;45.39
31337;BME280;22846;42.654;23.314;2023-04-15T00:31:57;93748.91;;;23.03;45.18
31337;BME280;22846;42.654;23.314;2023-04-15T00:34:23;93758.19;;;23.06;45.08
31337;BME280;22846;42.654;23.314;2023-04-15T00:36:49;93734.63;;;22.90;45.16
31337;BME280;22846;42.654;23.314;2023-04-15T00:39:15;93764.38;;;23.06;45.49
31337;BME280;22846;42.654;23.314;2023-04-15T00:41:42;93747.66;;;22.95;45.22
31337;BME280;22846;42.654;23.314;2023-04-15T00:44:07;93760.91;;;23.06;45.07
31337;BME280;22846;42.654;23.314;2023-04-15T00:46:37;93768.63;;;23.07;45.38
31337;BME280;22846;42.654;23.314;2023-04-15T00:49:04;93771.34;;;23.07;45.16
31337;BME280;22846;42.654;23.314;2023-04-15T00:51:31;93765.16;;;23.07;45.28
31337;BME280;22846;42.654;23.314;2023-04-15T00:53:58;93756.00;;;23.01;45.33
31337;BME280;22846;42.654;23.314;2023-04-15T00:56:25;93764.38;;;23.06;45.29
31337;BME280;22846;42.654;23.314;2023-04-15T00:58:52;93773.75;;;23.05;45.14
31337;BME280;22846;42.654;23.314;2023-04-15T01:01:21;93761.75;;;23.03;45.16
31337;BME280;22846;42.654;23.314;2023-04-15T01:03:48;93769.81;;;23.06;45.45
31337;BME280;22846;42.654;23.314;2023-04-15T01:06:14;93775.28;;;23.06;45.21
31337;BME280;22846;42.654;23.314;2023-04-15T01:08:40;93751.59;;;22.94;45.02
31337;BME280;22846;42.654;23.314;2023-04-15T01:11:06;93755.53;;;22.93;45.34
31337;BME280;22846;42.654;23.314;2023-04-15T01:13:33;93749.78;;;22.91;45.42
31337;BME280;22846;42.654;23.314;2023-04-15T01:15:58;93771.50;;;23.04;45.05
31337;BME280;22846;42.654;23.314;2023-04-15T01:18:25;93768.41;;;23.02;44.95
31337;BME280;22846;42.654;23.314;2023-04-15T01:20:51;93760.25;;;23.02;45.57
31337;BME280;22846;42.654;23.314;2023-04-15T01:23:17;93764.38;;;23.06;45.20
31337;BME280;22846;42.654;23.314;2023-04-15T01:25:42;93749.69;;;23.04;45.14
31337;BME280;22846;42.654;23.314;2023-04-15T01:28:09;93762.09;;;23.05;45.46
31337;BME280;22846;42.654;23.314;2023-04-15T01:30:35;93764.84;;;23.05;45.32
31337;BME280;22846;42.654;23.314;2023-04-15T01:33:00;93762.84;;;23.05;45.30
31337;BME280;22846;42.654;23.314;2023-04-15T01:35:26;93751.75;;;23.00;45.20
31337;BME280;22846;42.654;23.314;2023-04-15T01:37:53;93757.09;;;23.03;45.11
31337;BME280;22846;42.654;23.314;2023-04-15T01:40:18;93755.72;;;22.99;45.03
31337;BME280;22846;42.654;23.314;2023-04-15T01:42:44;93743.13;;;22.92;45.41
31337;BME280;22846;42.654;23.314;2023-04-15T01:45:10;93760.38;;;22.98;45.36
31337;BME280;22846;42.654;23.314;2023-04-15T01:47:37;93768.75;;;23.04;45.09
31337;BME280;22846;42.654;23.314;2023-04-15T01:50:03;93774.31;;;23.00;44.92
31337;BME280;22846;42.654;23.314;2023-04-15T01:52:29;93780.53;;;23.01;45.26
31337;BME280;22846;42.654;23.314;2023-04-15T01:54:54;93785.22;;;23.00;45.12
31337;BME280;22846;42.654;23.314;2023-04-15T01:57:20;93789.47;;;23.01;45.53
31337;BME280;22846;42.654;23.314;2023-04-15T01:59:46;93787.16;;;23.00;45.01
31337;BME280;22846;42.654;23.314;2023-04-15T02:02:11;93777.03;;;23.00;45.19
31337;BME280;22846;42.654;23.314;2023-04-15T02:04:36;93760.81;;;22.88;45.25
31337;BME280;22846;42.654;23.314;2023-04-15T02:07:02;93774.31;;;23.00;45.35
31337;BME280;22846;42.654;23.314;2023-04-15T02:09:27;93768.25;;;22.96;45.34
31337;BME280;22846;42.654;23.314;2023-04-15T02:11:53;93778.56;;;23.01;45.04
31337;BME280;22846;42.654;23.314;2023-04-15T02:14:18;93771.59;;;23.00;44.86
31337;BME280;22846;42.654;23.314;2023-04-15T02:16:44;93754.91;;;22.89;45.27
31337;BME280;22846;42.654;23.314;2023-04-15T02:19:09;93754.44;;;22.91;45.22
31337;BME280;22846;42.654;23.314;2023-04-15T02:21:35;93757.19;;;23.00;45.00
31337;BME280;22846;42.654;23.314;2023-04-15T02:24:00;93757.66;;;22.98;45.27
31337;BME280;22846;42.654;23.314;2023-04-15T02:26:26;93768.09;;;23.00;45.29
31337;BME280;22846;42.654;23.314;2023-04-15T02:28:52;93755.38;;;22.97;45.13
31337;BME280;22846;42.654;23.314;2023-04-15T02:31:17;93767.34;;;22.99;45.11
31337;BME280;22846;42.654;23.314;2023-04-15T02:33:43;93765.09;;;22.98;45.18
31337;BME280;22846;42.654;23.314;2023-04-15T02:36:08;93737.00;;;22.79;45.10
31337;BME280;22846;42.654;23.314;2023-04-15T02:38:35;93764.78;;;22.96;45.42
31337;BME280;22846;42.654;23.314;2023-04-15T02:41:02;93774.78;;;22.99;45.22
31337;BME280;22846;42.654;23.314;2023-04-15T02:43:27;93757.44;;;22.84;45.35
31337;BME280;22846;42.654;23.314;2023-04-15T02:45:53;93771.28;;;22.98;45.03
31337;BME280;22846;42.654;23.314;2023-04-15T02:48:18;93766.44;;;22.93;45.31
31337;BME280;22846;42.654;23.314;2023-04-15T02:50:45;93749.72;;;22.82;45.24
31337;BME280;22846;42.654;23.314;2023-04-15T02:53:11;93769.75;;;22.97;45.10
31337;BME280;22846;42.654;23.314;2023-04-15T02:55:37;93781.84;;;22.96;45.04
31337;BME280;22846;42.654;23.314;2023-04-15T02:58:03;93783.38;;;22.97;45.32
31337;BME280;22846;42.654;23.314;2023-04-15T03:00:28;93782.63;;;22.97;45.22
31337;BME280;22846;42.654;23.314;2023-04-15T03:03:03;93779.59;;;22.95;44.98
31337;BME280;22846;42.654;23.314;2023-04-15T03:05:29;93771.09;;;22.93;45.10
31337;BME280;22846;42.654;23.314;2023-04-15T03:07:55;93776.56;;;22.93;45.12
31337;BME280;22846;42.654;23.314;2023-04-15T03:10:20;93787.31;;;22.96;45.08
31337;BME280;22846;42.654;23.314;2023-04-15T03:12:46;93768.97;;;22.88;45.07
31337;BME280;22846;42.654;23.314;2023-04-15T03:15:12;93759.84;;;22.73;45.17
31337;BME280;22846;42.654;23.314;2023-04-15T03:17:38;93810.31;;;22.95;45.03
31337;BME280;22846;42.654;23.314;2023-04-15T03:20:04;93796.69;;;22.95;45.04
31337;BME280;22846;42.654;23.314;2023-04-15T03:22:31;93793.97;;;22.95;44.96
31337;BME280;22846;42.654;23.314;2023-04-15T03:24:57;93799.88;;;22.94;45.28
31337;BME280;22846;42.654;23.314;2023-04-15T03:27:23;93785.03;;;22.95;44.99
31337;BME280;22846;42.654;23.314;2023-04-15T03:29:48;93800.66;;;22.94;44.99
31337;BME280;22846;42.654;23.314;2023-04-15T03:32:14;93812.75;;;22.93;45.24
31337;BME280;22846;42.654;23.314;2023-04-15T03:34:40;93806.19;;;22.91;44.84
31337;BME280;22846;42.654;23.314;2023-04-15T03:37:06;93815.47;;;22.93;45.21
31337;BME280;22846;42.654;23.314;2023-04-15T03:39:32;93803.88;;;22.80;45.03
31337;BME280;22846;42.654;23.314;2023-04-15T03:41:58;93800.84;;;22.78;44.98
31337;BME280;22846;42.654;23.314;2023-04-15T03:44:25;93831.94;;;22.90;45.24
31337;BME280;22846;42.654;23.314;2023-04-15T03:46:50;93819.03;;;22.81;44.95
31337;BME280;22846;42.654;23.314;2023-04-15T03:49:16;93836.00;;;22.85;44.92
31337;BME280;22846;42.654;23.314;2023-04-15T03:51:41;93846.31;;;22.90;45.06
31337;BME280;22846;42.654;23.314;2023-04-15T03:54:07;93824.63;;;22.78;44.98
31337;BME280;22846;42.654;23.314;2023-04-15T03:56:32;93851.78;;;22.90;45.17
31337;BME280;22846;42.654;23.314;2023-04-15T03:58:57;93849.38;;;22.92;45.22
31337;BME280;22846;42.654;23.314;2023-04-15T04:01:23;93822.63;;;22.78;45.04
31337;BME280;22846;42.654;23.314;2023-04-15T04:03:48;93843.91;;;22.92;45.07
31337;BME280;22846;42.654;23.314;2023-04-15T04:06:14;93848.72;;;22.88;45.09
31337;BME280;22846;42.654;23.314;2023-04-15T04:08:39;93855.25;;;22.91;44.90
31337;BME280;22846;42.654;23.314;2023-04-15T04:11:05;93852.84;;;22.93;45.01
31337;BME280;22846;42.654;23.314;2023-04-15T04:13:31;93840.41;;;22.92;45.14
31337;BME280;22846;42.654;23.314;2023-04-15T04:15:56;93852.50;;;22.91;45.04
31337;BME280;22846;42.654;23.314;2023-04-15T04:18:22;93838.59;;;22.89;44.96
31337;BME280;22846;42.654;23.314;2023-04-15T04:20:47;93850.88;;;22.93;45.09
31337;BME280;22846;42.654;23.314;2023-04-15T04:23:12;93850.13;;;22.93;44.72
31337;BME280;22846;42.654;23.314;2023-04-15T04:25:38;93853.63;;;22.93;44.91
31337;BME280;22846;42.654;23.314;2023-04-15T04:28:03;93839.34;;;22.89;44.88
31337;BME280;22846;42.654;23.314;2023-04-15T04:30:29;93851.63;;;22.94;44.60
31337;BME280;22846;42.654;23.314;2023-04-15T04:32:54;93838.59;;;22.89;44.99
31337;BME280;22846;42.654;23.314;2023-04-15T04:35:20;93845.72;;;22.95;44.61
31337;BME280;22846;42.654;23.314;2023-04-15T04:37:46;93849.69;;;22.94;44.95
31337;BME280;22846;42.654;23.314;2023-04-15T04:40:11;93849.69;;;22.94;44.78
31337;BME280;22846;42.654;23.314;2023-04-15T04:42:37;93845.88;;;22.92;44.45
31337;BME280;22846;42.654;23.314;2023-04-15T04:45:02;93851.97;;;22.96;44.82
31337;BME280;22846;42.654;23.314;2023-04-15T04:47:28;93859.25;;;22.99;44.89
31337;BME280;22846;42.654;23.314;2023-04-15T04:49:54;93853.63;;;22.93;44.71
31337;BME280;22846;42.654;23.314;2023-04-15T04:52:19;93864.81;;;22.95;44.45
31337;BME280;22846;42.654;23.314;2023-04-15T04:54:45;93870.88;;;22.99;44.51
31337;BME280;22846;42.654;23.314;2023-04-15T04:57:11;93872.97;;;22.95;44.33
31337;BME280;22846;42.654;23.314;2023-04-15T04:59:38;93875.59;;;22.99;44.60
31337;BME280;22846;42.654;23.314;2023-04-15T05:02:03;93876.34;;;22.99;44.47
31337;BME280;22846;42.654;23.314;2023-04-15T05:04:28;93878.19;;;23.02;44.73
31337;BME280;22846;42.654;23.314;2023-04-15T05:06:55;93884.38;;;23.03;44.47
31337;BME280;22846;42.654;23.314;2023-04-15T05:09:20;93901.81;;;23.05;44.66
31337;BME280;22846;42.654;23.314;2023-04-15T05:11:46;93898.78;;;23.03;44.92
31337;BME280;22846;42.654;23.314;2023-04-15T05:14:11;93906.41;;;23.08;44.45
31337;BME280;22846;42.654;23.314;2023-04-15T05:16:37;93902.06;;;22.98;44.60
31337;BME280;22846;42.654;23.314;2023-04-15T05:19:02;93921.53;;;23.09;44.39
31337;BME280;22846;42.654;23.314;2023-04-15T05:21:27;93911.72;;;23.11;44.46
31337;BME280;22846;42.654;23.314;2023-04-15T05:23:53;93914.44;;;23.11;44.48
31337;BME280;22846;42.654;23.314;2023-04-15T05:26:18;93916.72;;;23.13;44.93
31337;BME280;22846;42.654;23.314;2023-04-15T05:28:44;93915.09;;;23.15;44.71
31337;BME280;22846;42.654;23.314;2023-04-15T05:31:09;93917.03;;;23.15;44.70
31337;BME280;22846;42.654;23.314;2023-04-15T05:33:35;93890.94;;;23.05;44.96
31337;BME280;22846;42.654;23.314;2023-04-15T05:36:01;93902.53;;;23.18;44.73
31337;BME280;22846;42.654;23.314;2023-04-15T05:38:26;93906.00;;;23.18;44.97
31337;BME280;22846;42.654;23.314;2023-04-15T05:40:51;93883.06;;;23.07;44.65
31337;BME280;22846;42.654;23.314;2023-04-15T05:43:17;93901.59;;;23.21;45.03
31337;BME280;22846;42.654;23.314;2023-04-15T05:45:42;93885.53;;;23.14;45.04
31337;BME280;22846;42.654;23.314;2023-04-15T05:48:08;93903.13;;;23.22;45.08
31337;BME280;22846;42.654;23.314;2023-04-15T05:50:33;93904.66;;;23.23;45.15
31337;BME280;22846;42.654;23.314;2023-04-15T05:52:59;93906.19;;;23.24;45.31
31337;BME280;22846;42.654;23.314;2023-04-15T05:55:26;93903.78;;;23.26;45.39
31337;BME280;22846;42.654;23.314;2023-04-15T05:57:51;93911.06;;;23.29;45.11
31337;BME280;22846;42.654;23.314;2023-04-15T06:00:17;93890.56;;;23.15;45.00
31337;BME280;22846;42.654;23.314;2023-04-15T06:02:42;93905.28;;;23.27;45.20
31337;BME280;22846;42.654;23.314;2023-04-15T06:05:08;93903.44;;;23.24;45.26
31337;BME280;22846;42.654;23.314;2023-04-15T06:07:35;93930.75;;;23.33;44.98
31337;BME280;22846;42.654;23.314;2023-04-15T06:10:02;93923.34;;;23.33;44.96
31337;BME280;22846;42.654;23.314;2023-04-15T06:12:27;93930.31;;;23.34;44.97
31337;BME280;22846;42.654;23.314;2023-04-15T06:14:53;93934.56;;;23.35;44.64
31337;BME280;22846;42.654;23.314;2023-04-15T06:17:18;93932.16;;;23.37;44.80
31337;BME280;22846;42.654;23.314;2023-04-15T06:19:43;93922.00;;;23.38;44.73
31337;BME280;22846;42.654;23.314;2023-04-15T06:22:09;93926.25;;;23.39;44.67
31337;BME280;22846;42.654;23.314;2023-04-15T06:24:34;93941.41;;;23.40;44.55
31337;BME280;22846;42.654;23.314;2023-04-15T06:27:01;93934.88;;;23.37;44.47
31337;BME280;22846;42.654;23.314;2023-04-15T06:29:27;93947.91;;;23.42;44.59
31337;BME280;22846;42.654;23.314;2023-04-15T06:31:53;93943.06;;;23.37;44.60
31337;BME280;22846;42.654;23.314;2023-04-15T06:34:18;93954.16;;;23.43;44.80
31337;BME280;22846;42.654;23.314;2023-04-15T06:36:44;93952.94;;;23.44;44.85
31337;BME280;22846;42.654;23.314;2023-04-15T06:39:09;93955.22;;;23.45;44.56
31337;BME280;22846;42.654;23.314;2023-04-15T06:41:35;93955.22;;;23.45;44.49
31337;BME280;22846;42.654;23.314;2023-04-15T06:44:00;93956.28;;;23.48;44.51
31337;BME280;22846;42.654;23.314;2023-04-15T06:46:26;93953.56;;;23.48;44.79
31337;BME280;22846;42.654;23.314;2023-04-15T06:51:27;93958.13;;;23.51;44.77
31337;BME280;22846;42.654;23.314;2023-04-15T06:53:52;93971.31;;;23.52;44.42
31337;BME280;22846;42.654;23.314;2023-04-15T06:56:18;93968.16;;;23.54;44.35
31337;BME280;22846;42.654;23.314;2023-04-15T06:58:43;93963.44;;;23.54;44.44
31337;BME280;22846;42.654;23.314;2023-04-15T07:01:08;93959.50;;;23.55;44.48
31337;BME280;22846;42.654;23.314;2023-04-15T07:03:34;93960.25;;;23.56;44.22
31337;BME280;22846;42.654;23.314;2023-04-15T07:05:59;93967.25;;;23.57;44.17
31337;BME280;22846;42.654;23.314;2023-04-15T07:08:26;93967.25;;;23.57;44.65
31337;BME280;22846;42.654;23.314;2023-04-15T07:10:51;93961.34;;;23.58;44.73
31337;BME280;22846;42.654;23.314;2023-04-15T07:13:16;93964.09;;;23.58;44.27
31337;BME280;22846;42.654;23.314;2023-04-15T07:15:42;93956.66;;;23.59;44.58
31337;BME280;22846;42.654;23.314;2023-04-15T07:18:07;93963.63;;;23.60;44.57
31337;BME280;22846;42.654;23.314;2023-04-15T07:20:34;93951.00;;;23.53;44.53
31337;BME280;22846;42.654;23.314;2023-04-15T07:22:59;93963.16;;;23.61;44.46
31337;BME280;22846;42.654;23.314;2023-04-15T07:25:24;93967.88;;;23.61;44.16
31337;BME280;22846;42.654;23.314;2023-04-15T07:27:51;93974.84;;;23.62;44.14
31337;BME280;22846;42.654;23.314;2023-04-15T07:30:17;93965.91;;;23.61;44.44
31337;BME280;22846;42.654;23.314;2023-04-15T07:32:43;93970.91;;;23.63;44.47
31337;BME280;22846;42.654;23.314;2023-04-15T07:35:08;93977.13;;;23.63;44.42
31337;BME280;22846;42.654;23.314;2023-04-15T07:37:34;93971.22;;;23.65;44.45
31337;BME280;22846;42.654;23.314;2023-04-15T07:39:59;93956.66;;;23.59;44.16
31337;BME280;22846;42.654;23.314;2023-04-15T07:42:25;93966.97;;;23.64;44.33
31337;BME280;22846;42.654;23.314;2023-04-15T07:44:50;93961.50;;;23.64;44.12
31337;BME280;22846;42.654;23.314;2023-04-15T07:47:16;93961.50;;;23.64;44.46
31337;BME280;22846;42.654;23.314;2023-04-15T07:49:41;93966.97;;;23.64;44.48
31337;BME280;22846;42.654;23.314;2023-04-15T07:52:07;93981.38;;;23.64;43.99
31337;BME280;22846;42.654;23.314;2023-04-15T07:54:33;93978.66;;;23.64;44.23
31337;BME280;22846;42.654;23.314;2023-04-15T07:56:58;93979.41;;;23.65;44.34
31337;BME280;22846;42.654;23.314;2023-04-15T07:59:23;93981.38;;;23.64;43.99
31337;BME280;22846;42.654;23.314;2023-04-15T08:01:49;93978.66;;;23.64;44.36
31337;BME280;22846;42.654;23.314;2023-04-15T08:04:14;93979.41;;;23.65;43.97
31337;BME280;22846;42.654;23.314;2023-04-15T08:06:40;93980.91;;;23.66;44.01
31337;BME280;22846;42.654;23.314;2023-04-15T08:09:06;93968.19;;;23.63;44.07
31337;BME280;22846;42.654;23.314;2023-04-15T08:11:32;93975.47;;;23.66;44.14
31337;BME280;22846;42.654;23.314;2023-04-15T08:13:57;93980.91;;;23.66;44.45
31337;BME280;22846;42.654;23.314;2023-04-15T08:16:24;93987.56;;;23.65;44.04
31337;BME280;22846;42.654;23.314;2023-04-15T08:18:53;93977.44;;;23.65;43.91
31337;BME280;22846;42.654;23.314;2023-04-15T08:21:19;93978.97;;;23.66;43.98
31337;BME280;22846;42.654;23.314;2023-04-15T08:23:46;93968.31;;;23.59;43.99
31337;BME280;22846;42.654;23.314;2023-04-15T08:26:12;93971.22;;;23.65;44.10
31337;BME280;22846;42.654;23.314;2023-04-15T08:28:39;93978.97;;;23.66;44.42
31337;BME280;22846;42.654;23.314;2023-04-15T08:31:05;93969.56;;;23.67;44.29
31337;BME280;22846;42.654;23.314;2023-04-15T08:33:30;93977.75;;;23.67;43.84
31337;BME280;22846;42.654;23.314;2023-04-15T08:35:56;93971.53;;;23.67;44.23
31337;BME280;22846;42.654;23.314;2023-04-15T08:38:22;93968.81;;;23.67;44.05
31337;BME280;22846;42.654;23.314;2023-04-15T08:40:48;93958.66;;;23.67;44.16
31337;BME280;22846;42.654;23.314;2023-04-15T08:43:27;93959.88;;;23.66;44.26
31337;BME280;22846;42.654;23.314;2023-04-15T08:45:54;93966.06;;;23.67;44.43
31337;BME280;22846;42.654;23.314;2023-04-15T08:48:24;93964.88;;;23.68;44.20
31337;BME280;22846;42.654;23.314;2023-04-15T08:50:52;93966.41;;;23.69;44.51
31337;BME280;22846;42.654;23.314;2023-04-15T08:53:18;93962.16;;;23.68;44.26
31337;BME280;22846;42.654;23.314;2023-04-15T08:55:45;93956.69;;;23.68;44.25
31337;BME280;22846;42.654;23.314;2023-04-15T08:58:12;93944.53;;;23.60;44.29
31337;BME280;22846;42.654;23.314;2023-04-15T09:00:39;93957.44;;;23.68;44.07
31337;BME280;22846;42.654;23.314;2023-04-15T09:03:05;93946.53;;;23.68;44.47
31337;BME280;22846;42.654;23.314;2023-04-15T09:05:32;93935.63;;;23.68;44.36
31337;BME280;22846;42.654;23.314;2023-04-15T09:07:58;93940.47;;;23.64;44.32
31337;BME280;22846;42.654;23.314;2023-04-15T09:10:23;93937.88;;;23.61;44.34
31337;BME280;22846;42.654;23.314;2023-04-15T09:12:49;93955.47;;;23.69;44.20
31337;BME280;22846;42.654;23.314;2023-04-15T09:15:14;93948.81;;;23.70;44.04
31337;BME280;22846;42.654;23.314;2023-04-15T09:17:45;93939.56;;;23.67;44.62
31337;BME280;22846;42.654;23.314;2023-04-15T09:20:11;93946.09;;;23.70;44.33
31337;BME280;22846;42.654;23.314;2023-04-15T09:22:41;93932.47;;;23.70;44.38
31337;BME280;22846;42.654;23.314;2023-04-15T09:27:53;93937.91;;;23.70;44.42
31337;BME280;22846;42.654;23.314;2023-04-15T09:30:18;93940.63;;;23.70;44.24
31337;BME280;22846;42.654;23.314;2023-04-15T09:32:51;93940.63;;;23.70;44.37
31337;BME280;22846;42.654;23.314;2023-04-15T09:35:17;93933.97;;;23.71;44.19
31337;BME280;22846;42.654;23.314;2023-04-15T09:37:43;93933.97;;;23.71;44.31
31337;BME280;22846;42.654;23.314;2023-04-15T09:40:09;93931.25;;;23.71;44.55
31337;BME280;22846;42.654;23.314;2023-04-15T09:42:55;93929.28;;;23.71;44.49
31337;BME280;22846;42.654;23.314;2023-04-15T09:45:21;93926.22;;;23.69;44.46
31337;BME280;22846;42.654;23.314;2023-04-15T09:47:47;93933.53;;;23.72;44.16
31337;BME280;22846;42.654;23.314;2023-04-15T09:50:12;93940.97;;;23.72;44.27
31337;BME280;22846;42.654;23.314;2023-04-15T09:52:43;93940.97;;;23.72;44.29
31337;BME280;22846;42.654;23.314;2023-04-15T09:55:09;93932.59;;;23.66;44.59
31337;BME280;22846;42.654;23.314;2023-04-15T09:57:35;93945.19;;;23.73;44.65
31337;BME280;22846;42.654;23.314;2023-04-15T10:00:05;93949.13;;;23.72;44.28
31337;BME280;22846;42.654;23.314;2023-04-15T10:02:33;93941.06;;;23.68;44.32
31337;BME280;22846;42.654;23.314;2023-04-15T10:05:00;93941.25;;;23.74;44.33
31337;BME280;22846;42.654;23.314;2023-04-15T10:07:26;93930.34;;;23.74;44.50
31337;BME280;22846;42.654;23.314;2023-04-15T10:09:52;93925.78;;;23.71;44.58
31337;BME280;22846;42.654;23.314;2023-04-15T10:12:18;93931.88;;;23.75;44.13
31337;BME280;22846;42.654;23.314;2023-04-15T10:14:47;93927.59;;;23.74;44.11
31337;BME280;22846;42.654;23.314;2023-04-15T10:17:15;93922.94;;;23.74;44.37
31337;BME280;22846;42.654;23.314;2023-04-15T10:19:42;93919.78;;;23.76;44.56
31337;BME280;22846;42.654;23.314;2023-04-15T10:22:08;93900.59;;;23.67;44.31
31337;BME280;22846;42.654;23.314;2023-04-15T10:24:33;93924.47;;;23.75;44.42
31337;BME280;22846;42.654;23.314;2023-04-15T10:26:59;93918.56;;;23.77;44.36
31337;BME280;22846;42.654;23.314;2023-04-15T10:29:25;93902.19;;;23.77;43.89
31337;BME280;22846;42.654;23.314;2023-04-15T10:31:58;93903.72;;;23.78;44.49
31337;BME280;22846;42.654;23.314;2023-04-15T10:34:24;93900.66;;;23.76;44.19
31337;BME280;22846;42.654;23.314;2023-04-15T10:36:49;93903.72;;;23.78;44.15
31337;BME280;22846;42.654;23.314;2023-04-15T10:39:38;93909.50;;;23.80;44.02
31337;BME280;22846;42.654;23.314;2023-04-15T10:42:12;93907.97;;;23.79;44.04
31337;BME280;22846;42.654;23.314;2023-04-15T10:44:41;93909.50;;;23.80;44.38
31337;BME280;22846;42.654;23.314;2023-04-15T10:47:15;93904.78;;;23.80;44.45
31337;BME280;22846;42.654;23.314;2023-04-15T10:50:04;93895.38;;;23.81;43.98
31337;BME280;22846;42.654;23.314;2023-04-15T10:52:30;93895.38;;;23.81;44.43
31337;BME280;22846;42.654;23.314;2023-04-15T10:55:13;93896.91;;;23.82;44.08
31337;BME280;22846;42.654;23.314;2023-04-15T10:57:41;93899.63;;;23.82;44.20
31337;BME280;22846;42.654;23.314;2023-04-15T11:05:11;93892.97;;;23.83;44.32
31337;BME280;22846;42.654;23.314;2023-04-15T11:12:46;93889.28;;;23.77;44.34
31337;BME280;22846;42.654;23.314;2023-04-15T11:18:21;93894.94;;;23.83;44.15
31337;BME280;22846;42.654;23.314;2023-04-15T11:20:52;93886.88;;;23.79;42.96
31337;BME280;22846;42.654;23.314;2023-04-15T11:23:31;93886.69;;;23.74;35.36
31337;BME280;22846;42.654;23.314;2023-04-15T11:25:59;93876.50;;;23.56;27.33
31337;BME280;22846;42.654;23.314;2023-04-15T11:28:26;93880.84;;;23.45;30.99
31337;BME280;22846;42.654;23.314;2023-04-15T11:30:54;93891.72;;;23.36;31.57
31337;BME280;22846;42.654;23.314;2023-04-15T11:33:20;93896.84;;;23.34;33.08
31337;BME280;22846;42.654;23.314;2023-04-15T11:35:47;93891.72;;;23.36;35.49
31337;BME280;22846;42.654;23.314;2023-04-15T11:38:14;93890.78;;;23.39;36.99
31337;BME280;22846;42.654;23.314;2023-04-15T11:40:40;93900.81;;;23.42;36.87
31337;BME280;22846;42.654;23.314;2023-04-15T11:45:32;93888.88;;;23.48;35.06
31337;BME280;22846;42.654;23.314;2023-04-15T11:48:08;93889.78;;;23.45;27.53
31337;BME280;22846;42.654;23.314;2023-04-15T11:50:35;93876.34;;;23.20;25.52
31337;BME280;22846;42.654;23.314;2023-04-15T11:53:03;93887.56;;;23.01;26.02
31337;BME280;22846;42.654;23.314;2023-04-15T11:55:29;93884.31;;;22.94;29.49
31337;BME280;22846;42.654;23.314;2023-04-15T12:00:55;93873.84;;;23.05;35.12
31337;BME280;22846;42.654;23.314;2023-04-15T12:09:25;93844.31;;;23.12;34.39
31337;BME280;22846;42.654;23.314;2023-04-15T12:11:33;93873.06;;;23.34;35.42
31337;BME280;22846;42.654;23.314;2023-04-15T12:14:10;93865.66;;;23.35;35.80
31337;BME280;22846;42.654;23.314;2023-04-15T12:16:41;93876.91;;;23.46;37.05
31337;BME280;22846;42.654;23.314;2023-04-15T12:19:10;93874.06;;;23.58;37.53
31337;BME280;22846;42.654;23.314;2023-04-15T12:21:38;93869.13;;;23.75;37.65
31337;BME280;22846;42.654;23.314;2023-04-15T12:24:06;93868.88;;;23.91;38.46
31337;BME280;22846;42.654;23.314;2023-04-15T12:26:37;93876.78;;;23.97;38.38
31337;BME280;22846;42.654;23.314;2023-04-15T12:29:07;93880.13;;;24.01;38.89
31337;BME280;22846;42.654;23.314;2023-04-15T12:31:36;93880.91;;;24.02;38.74
31337;BME280;22846;42.654;23.314;2023-04-15T12:34:08;93882.09;;;24.01;38.67
31337;BME280;22846;42.654;23.314;2023-04-15T12:36:33;93885.88;;;23.94;34.33
31337;BME280;22846;42.654;23.314;2023-04-15T12:39:03;93881.91;;;23.87;35.57
31337;BME280;22846;42.654;23.314;2023-04-15T12:41:29;93884.31;;;23.76;37.71
31337;BME280;22846;42.654;23.314;2023-04-15T12:43:55;93879.63;;;23.94;36.91
31337;BME280;22846;42.654;23.314;2023-04-15T12:46:20;93878.91;;;24.02;36.69
31337;BME280;22846;42.654;23.314;2023-04-15T12:48:46;93887.88;;;24.12;37.47
31337;BME280;22846;42.654;23.314;2023-04-15T12:51:13;93887.72;;;24.15;38.15
31337;BME280;22846;42.654;23.314;2023-04-15T12:53:38;93888.81;;;24.18;38.31
31337;BME280;22846;42.654;23.314;2023-04-15T12:56:04;93884.25;;;24.15;34.25
31337;BME280;22846;42.654;23.314;2023-04-15T12:58:30;93885.13;;;24.03;29.59
31337;BME280;22846;42.654;23.314;2023-04-15T13:00:56;93886.78;;;24.00;29.80
31337;BME280;22846;42.654;23.314;2023-04-15T13:03:21;93893.28;;;23.94;30.03
31337;BME280;22846;42.654;23.314;2023-04-15T13:05:47;93882.34;;;23.85;32.26
31337;BME280;22846;42.654;23.314;2023-04-15T13:08:12;93883.59;;;23.93;34.12
31337;BME280;22846;42.654;23.314;2023-04-15T13:10:37;93874.50;;;23.96;36.11
31337;BME280;22846;42.654;23.314;2023-04-15T13:13:04;93882.09;;;24.01;36.49
31337;BME280;22846;42.654;23.314;2023-04-15T13:15:29;93872.25;;;24.03;37.44